Time;durP1;ratioP1;P1;durP2;ratioP2;P2;SDS_P1;SDS_P2;PMS_P1;PMS_P2;Temp;Humidity;BMP_temperature;BMP_pressure;BME280_temperature;BME280_humidity;BME280_pressure;Samples;Min_cycle;Max_cycle;Signal;HPM_P1;HPM_P2
2022/12/23 00:01:44;;;;;;;2.75;0.60;;;14.90;76.40;;;;;;2426891;52;21005;-77
2022/12/23 00:04:11;;;;;;;1.08;0.30;;;14.90;76.40;;;;;;2459525;53;21042;-77
2022/12/23 00:06:37;;;;;;;3.30;0.50;;;14.90;76.40;;;;;;2397856;53;21024;-77
2022/12/23 00:09:03;;;;;;;1.20;0.40;;;15.00;76.50;;;;;;2385166;52;20993;-77
2022/12/23 00:11:29;;;;;;;1.70;0.52;;;15.00;76.50;;;;;;2390656;53;20905;-77
2022/12/23 00:16:46;;;;;;;0.50;0.20;;;15.00;76.60;;;;;;2385134;53;20902;-77
2022/12/23 00:19:13;;;;;;;0.90;0.30;;;15.10;76.70;;;;;;2367928;53;21078;-77
2022/12/23 00:21:39;;;;;;;0.47;0.10;;;15.10;76.70;;;;;;2376802;52;21197;-77
2022/12/23 00:24:06;;;;;;;2.28;0.30;;;15.10;76.70;;;;;;2342113;54;20910;-77
2022/12/23 00:26:33;;;;;;;0.47;0.20;;;15.20;76.80;;;;;;2588053;52;21014;-77
2022/12/23 00:29:25;;;;;;;0.20;0.20;;;15.20;76.80;;;;;;2346537;53;21527;-77
2022/12/23 00:31:51;;;;;;;1.08;0.32;;;15.20;76.80;;;;;;2588844;52;21690;-77
2022/12/23 00:34:17;;;;;;;1.15;0.40;;;15.20;76.80;;;;;;2419168;52;20935;-78
2022/12/23 00:36:43;;;;;;;1.33;0.30;;;15.30;76.80;;;;;;2588555;52;21627;-77
2022/12/23 00:44:40;;;;;;;1.30;0.37;;;15.40;76.90;;;;;;2342324;54;20986;-77
2022/12/23 00:49:40;;;;;;;0.90;0.30;;;15.40;76.90;;;;;;2342290;54;20946;-77
2022/12/23 00:52:08;;;;;;;0.82;0.30;;;15.50;77.00;;;;;;2338094;54;20955;-77
2022/12/23 00:54:34;;;;;;;0.43;0.20;;;15.50;76.80;;;;;;2539450;52;20943;-77
2022/12/23 00:57:02;;;;;;;0.90;0.30;;;15.60;76.90;;;;;;2369981;53;21033;-76
2022/12/23 00:59:28;;;;;;;0.35;0.20;;;15.60;76.90;;;;;;2510132;53;20950;-77
2022/12/23 01:07:54;;;;;;;0.88;0.30;;;15.70;77.00;;;;;;2335951;54;21443;-77
2022/12/23 01:10:20;;;;;;;0.93;0.20;;;15.70;76.40;;;;;;2411285;53;21746;-77
2022/12/23 01:12:47;;;;;;;0.93;0.30;;;15.70;77.00;;;;;;2454723;52;20980;-77
2022/12/23 01:15:13;;;;;;;0.10;0.10;;;15.70;77.00;;;;;;2342740;54;20986;-77
2022/12/23 01:17:40;;;;;;;0.65;0.20;;;15.70;77.00;;;;;;2342070;54;20910;-76
2022/12/23 01:20:07;;;;;;;0.70;0.20;;;15.80;77.10;;;;;;2433960;52;20941;-77
2022/12/23 01:22:36;;;;;;;0.62;0.30;;;15.80;77.00;;;;;;2407113;53;20939;-77
2022/12/23 01:25:02;;;;;;;0.62;0.28;;;15.80;76.90;;;;;;2342747;54;20935;-80
2022/12/23 01:27:38;;;;;;;1.27;0.30;;;15.90;77.60;;;;;;2332554;53;21797;-77
2022/12/23 01:30:05;;;;;;;0.85;0.30;;;15.90;76.50;;;;;;2381385;53;21014;-77
2022/12/23 01:33:02;;;;;;;1.17;0.30;;;15.90;76.90;;;;;;2342183;54;20915;-78
2022/12/23 01:35:30;;;;;;;1.12;0.30;;;15.90;76.30;;;;;;2342266;54;20962;-78
2022/12/23 01:45:44;;;;;;;1.12;0.30;;;16.00;76.30;;;;;;2416418;52;20939;-80
2022/12/23 01:48:22;;;;;;;0.70;0.30;;;16.00;76.70;;;;;;2337851;55;21850;-77
2022/12/23 01:50:53;;;;;;;0.13;0.10;;;16.00;76.70;;;;;;2341580;54;20943;-81
2022/12/23 01:53:21;;;;;;;0.57;0.25;;;16.10;76.80;;;;;;2528523;52;20938;-77
2022/12/23 01:55:56;;;;;;;0.22;0.20;;;16.10;77.00;;;;;;2375548;53;21006;-79
2022/12/23 01:58:35;;;;;;;0.37;0.10;;;16.10;77.00;;;;;;2341928;54;20918;-78
2022/12/23 02:03:48;;;;;;;0.55;0.20;;;16.10;77.00;;;;;;2437110;52;21058;-79
2022/12/23 02:09:20;;;;;;;0.70;0.20;;;16.20;76.60;;;;;;2333426;54;21077;-79
2022/12/23 02:12:52;;;;;;;0.90;0.30;;;16.20;77.00;;;;;;2337169;54;21011;-78
2022/12/23 02:18:37;;;;;;;0.43;0.20;;;16.20;76.50;;;;;;2341456;54;21764;-79
2022/12/23 02:21:30;;;;;;;0.30;0.10;;;16.30;76.70;;;;;;2456160;52;20942;-78
2022/12/23 02:27:07;;;;;;;0.10;0.05;;;16.30;76.50;;;;;;2342038;54;21001;-78
2022/12/23 02:30:02;;;;;;;0.57;0.10;;;16.30;76.00;;;;;;2339265;54;20994;-80
2022/12/23 02:35:10;;;;;;;0.17;0.10;;;16.30;76.20;;;;;;2342250;54;20922;-77
2022/12/23 02:37:57;;;;;;;0.68;0.10;;;16.30;76.60;;;;;;2342637;54;25218;-78
2022/12/23 02:40:49;;;;;;;0.10;0.10;;;16.40;76.50;;;;;;2341712;54;20951;-77
2022/12/23 02:43:55;;;;;;;0.20;0.20;;;16.40;76.10;;;;;;2315540;54;20976;-78
2022/12/23 02:46:31;;;;;;;0.93;0.20;;;16.30;75.70;;;;;;2315421;54;21216;-77
2022/12/23 02:49:22;;;;;;;1.17;0.20;;;16.30;76.40;;;;;;2500516;53;21004;-78
2022/12/23 02:51:49;;;;;;;1.00;0.20;;;16.30;76.00;;;;;;2325960;53;21112;-78
2022/12/23 02:54:37;;;;;;;0.75;0.20;;;16.30;76.50;;;;;;2555067;53;20988;-78
2022/12/23 02:57:03;;;;;;;0.77;0.20;;;16.30;76.50;;;;;;2458582;52;21514;-78
2022/12/23 02:59:33;;;;;;;1.45;0.30;;;16.40;76.70;;;;;;2336896;54;20976;-77
2022/12/23 03:01:59;;;;;;;0.30;0.15;;;16.30;76.50;;;;;;2586872;52;20955;-78
2022/12/23 03:04:26;;;;;;;0.88;0.20;;;16.30;76.50;;;;;;2416933;52;20911;-78
2022/12/23 03:06:53;;;;;;;0.73;0.25;;;16.30;76.50;;;;;;2502508;52;20907;-78
2022/12/23 03:13:58;;;;;;;0.20;0.10;;;16.40;76.10;;;;;;2462749;52;20925;-77
2022/12/23 03:19:53;;;;;;;0.40;0.20;;;16.40;76.40;;;;;;2342236;54;21809;-78
2022/12/23 03:22:56;;;;;;;0.10;0.10;;;16.30;76.00;;;;;;2343996;54;21033;-77
2022/12/23 03:25:48;;;;;;;0.45;0.10;;;16.40;75.90;;;;;;2334390;54;20998;-78
2022/12/23 03:28:54;;;;;;;0.47;0.20;;;16.30;75.80;;;;;;2337047;54;20958;-77
2022/12/23 03:31:30;;;;;;;0.28;0.10;;;16.40;76.00;;;;;;2340160;53;20995;-81
2022/12/23 03:34:39;;;;;;;0.20;0.10;;;16.40;76.30;;;;;;2337025;54;21002;-78
2022/12/23 03:37:06;;;;;;;0.90;0.20;;;16.40;76.10;;;;;;2588464;52;20926;-78
2022/12/23 03:39:44;;;;;;;0.37;0.20;;;16.30;76.60;;;;;;2515231;52;20927;-79
2022/12/23 03:42:17;;;;;;;0.47;0.22;;;16.30;76.50;;;;;;2341921;54;20966;-76
2022/12/23 03:45:00;;;;;;;0.10;0.10;;;16.40;76.70;;;;;;2333856;54;21004;-78
2022/12/23 03:48:44;;;;;;;0.25;0.10;;;16.40;76.30;;;;;;2380638;53;20941;-79
2022/12/23 03:51:15;;;;;;;0.60;0.20;;;16.40;76.70;;;;;;2368119;53;20917;-77
2022/12/23 03:53:48;;;;;;;0.15;0.10;;;16.40;76.70;;;;;;2337541;54;20974;-79
2022/12/23 03:56:19;;;;;;;0.45;0.20;;;16.40;76.70;;;;;;2549248;52;20918;-79
2022/12/23 03:59:19;;;;;;;0.30;0.10;;;16.40;76.70;;;;;;2342616;54;20970;-77
2022/12/23 04:02:06;;;;;;;0.82;0.10;;;16.40;76.20;;;;;;2431386;52;20938;-78
2022/12/23 04:05:35;;;;;;;0.50;0.15;;;16.40;76.20;;;;;;2342147;54;20917;-80
2022/12/23 04:08:26;;;;;;;0.50;0.13;;;16.40;76.30;;;;;;2342169;54;20895;-77
2022/12/23 04:10:52;;;;;;;0.35;0.10;;;16.50;76.40;;;;;;2382977;53;20938;-78
2022/12/23 04:13:18;;;;;;;0.60;0.17;;;16.40;76.80;;;;;;2431890;52;20987;-80
2022/12/23 04:15:45;;;;;;;0.17;0.10;;;16.40;76.80;;;;;;2447263;52;20998;-77
2022/12/23 04:18:30;;;;;;;0.13;0.10;;;16.40;76.90;;;;;;2341699;54;20903;-76
2022/12/23 04:20:56;;;;;;;0.62;0.10;;;16.50;76.50;;;;;;2351170;54;20958;-78
2022/12/23 04:23:26;;;;;;;0.30;0.10;;;16.50;77.00;;;;;;2341735;54;20926;-79
2022/12/23 04:25:52;;;;;;;0.20;0.10;;;16.40;76.80;;;;;;2342392;54;20998;-78
2022/12/23 04:28:20;;;;;;;0.32;0.20;;;16.50;76.90;;;;;;2430973;53;20950;-78
2022/12/23 04:30:47;;;;;;;0.25;0.10;;;16.50;76.90;;;;;;2389603;52;20962;-78
2022/12/23 04:33:13;;;;;;;0.35;0.20;;;16.50;76.80;;;;;;2460926;52;20998;-77
2022/12/23 04:35:39;;;;;;;0.77;0.20;;;16.50;76.90;;;;;;2341692;54;21888;-79
2022/12/23 04:38:06;;;;;;;1.70;0.45;;;16.50;76.90;;;;;;2518560;52;21926;-78
2022/12/23 04:40:33;;;;;;;0.62;0.22;;;16.50;76.90;;;;;;2341919;54;20926;-78
2022/12/23 04:43:00;;;;;;;0.73;0.20;;;16.50;76.90;;;;;;2342522;54;21491;-78
2022/12/23 04:45:26;;;;;;;0.25;0.10;;;16.50;76.90;;;;;;2380692;53;20982;-78
2022/12/23 04:47:54;;;;;;;0.32;0.10;;;16.50;76.80;;;;;;2554699;52;21049;-77
2022/12/23 04:50:20;;;;;;;0.10;0.10;;;16.50;76.80;;;;;;2328691;54;20964;-80
2022/12/23 04:52:47;;;;;;;0.45;0.17;;;16.40;76.70;;;;;;2319443;53;20977;-79
2022/12/23 04:55:13;;;;;;;0.28;0.20;;;16.50;76.80;;;;;;2321360;53;21822;-78
2022/12/23 04:57:40;;;;;;;0.40;0.10;;;16.50;76.80;;;;;;2341506;53;20929;-78
2022/12/23 05:00:09;;;;;;;0.40;0.20;;;16.50;76.90;;;;;;2316766;53;20952;-79
2022/12/23 05:02:35;;;;;;;0.40;0.20;;;16.40;76.80;;;;;;2315082;53;20921;-78
2022/12/23 05:05:08;;;;;;;0.20;0.10;;;16.40;76.80;;;;;;2413031;53;20909;-77
2022/12/23 05:07:34;;;;;;;0.70;0.22;;;16.40;76.60;;;;;;2337585;54;20950;-78
2022/12/23 05:10:03;;;;;;;1.73;0.20;;;16.40;76.80;;;;;;2437663;53;20941;-78
2022/12/23 05:12:29;;;;;;;0.52;0.20;;;16.40;76.80;;;;;;2315243;54;20932;-78
2022/12/23 05:14:56;;;;;;;0.35;0.25;;;16.40;77.10;;;;;;2353236;54;20913;-78
2022/12/23 05:17:57;;;;;;;0.68;0.25;;;16.40;76.80;;;;;;2487262;53;20909;-79
2022/12/23 05:20:24;;;;;;;0.68;0.20;;;16.50;76.50;;;;;;2315083;54;20928;-79
2022/12/23 05:22:51;;;;;;;0.77;0.17;;;16.50;76.90;;;;;;2541094;53;21533;-79
2022/12/23 05:25:17;;;;;;;0.65;0.30;;;16.40;76.80;;;;;;2328796;54;21052;-80
2022/12/23 05:27:44;;;;;;;0.37;0.28;;;16.40;76.80;;;;;;2336330;54;21319;-80
2022/12/23 05:30:11;;;;;;;0.65;0.20;;;16.40;76.80;;;;;;2342422;54;21746;-79
2022/12/23 05:32:38;;;;;;;0.13;0.10;;;16.40;76.80;;;;;;2579462;53;21465;-79
2022/12/23 05:35:05;;;;;;;0.90;0.30;;;16.40;76.80;;;;;;2342264;55;20905;-78
2022/12/23 05:38:11;;;;;;;0.82;0.25;;;16.40;76.80;;;;;;2378443;53;21021;-78
2022/12/23 05:40:39;;;;;;;1.08;0.30;;;16.40;76.40;;;;;;2341416;54;20933;-79
2022/12/23 05:43:05;;;;;;;1.12;0.20;;;16.40;76.80;;;;;;2341901;54;21846;-79
2022/12/23 05:45:34;;;;;;;0.52;0.25;;;16.40;76.80;;;;;;2476003;53;21517;-79
2022/12/23 05:48:02;;;;;;;1.87;0.30;;;16.40;76.80;;;;;;2341416;55;21409;-78
2022/12/23 05:50:30;;;;;;;0.47;0.28;;;16.40;76.80;;;;;;2342022;54;20989;-78
2022/12/23 05:52:59;;;;;;;0.75;0.30;;;16.40;76.80;;;;;;2405914;53;20973;-79
2022/12/23 05:55:25;;;;;;;1.02;0.50;;;16.40;76.90;;;;;;2588969;53;20953;-79
2022/12/23 05:57:52;;;;;;;1.08;0.30;;;16.40;77.00;;;;;;2377012;53;20933;-79
2022/12/23 06:00:18;;;;;;;1.15;0.40;;;16.40;77.00;;;;;;2341494;54;21009;-78
2022/12/23 06:02:47;;;;;;;0.57;0.32;;;16.40;77.00;;;;;;2342739;55;20929;-78
2022/12/23 06:05:17;;;;;;;0.95;0.30;;;16.40;76.90;;;;;;2341615;55;20956;-77
2022/12/23 06:07:43;;;;;;;0.73;0.30;;;16.40;76.90;;;;;;2342226;55;21829;-78
2022/12/23 06:10:10;;;;;;;0.88;0.37;;;16.40;76.90;;;;;;2341869;55;20981;-77
2022/12/23 06:12:37;;;;;;;0.80;0.30;;;16.40;76.90;;;;;;2342485;54;20985;-78
2022/12/23 06:15:04;;;;;;;1.08;0.47;;;16.30;76.80;;;;;;2348776;53;21741;-77
2022/12/23 06:17:31;;;;;;;0.80;0.30;;;16.40;76.90;;;;;;2582479;53;21410;-78
2022/12/23 06:19:58;;;;;;;1.00;0.20;;;16.40;76.90;;;;;;2483503;53;21008;-77
2022/12/23 06:22:24;;;;;;;1.15;0.40;;;16.40;77.00;;;;;;2588006;53;20981;-79
2022/12/23 06:24:50;;;;;;;0.93;0.30;;;16.40;77.00;;;;;;2342430;55;21359;-79
2022/12/23 06:27:17;;;;;;;0.85;0.30;;;16.40;77.10;;;;;;2375642;53;21379;-80
2022/12/23 06:29:43;;;;;;;0.95;0.35;;;16.40;77.00;;;;;;2338531;54;21291;-78
2022/12/23 06:32:10;;;;;;;0.73;0.30;;;16.40;77.00;;;;;;2326475;54;20920;-78
2022/12/23 06:34:37;;;;;;;0.60;0.28;;;16.30;77.00;;;;;;2341011;54;20981;-81
2022/12/23 06:37:03;;;;;;;1.35;0.28;;;16.40;77.10;;;;;;2469647;53;20917;-80
2022/12/23 06:39:30;;;;;;;0.20;0.10;;;16.40;77.10;;;;;;2450765;53;20993;-78
2022/12/23 06:41:56;;;;;;;0.57;0.20;;;16.40;77.10;;;;;;2381978;54;20941;-80
2022/12/23 06:44:23;;;;;;;1.70;0.25;;;16.40;77.20;;;;;;2341688;54;20937;-79
2022/12/23 06:46:55;;;;;;;2.42;0.30;;;16.30;77.20;;;;;;2342248;55;21041;-80
2022/12/23 06:49:21;;;;;;;0.40;0.20;;;16.40;77.10;;;;;;2502300;53;20911;-79
2022/12/23 06:51:48;;;;;;;1.85;0.60;;;16.40;77.30;;;;;;2323660;54;20936;-80
2022/12/23 06:54:16;;;;;;;1.73;0.60;;;16.40;77.30;;;;;;2575175;53;20945;-79
2022/12/23 06:56:55;;;;;;;2.80;1.00;;;16.40;77.30;;;;;;2342264;54;20988;-80
2022/12/23 06:59:21;;;;;;;2.50;0.90;;;16.40;76.90;;;;;;2501714;53;20909;-79
2022/12/23 07:01:48;;;;;;;2.40;0.95;;;16.40;77.10;;;;;;2342296;54;20933;-79
2022/12/23 07:04:24;;;;;;;2.37;0.77;;;16.50;77.20;;;;;;2472356;53;20921;-79
2022/12/23 07:06:50;;;;;;;1.73;0.68;;;16.50;76.90;;;;;;2342601;55;21091;-81
2022/12/23 07:09:16;;;;;;;1.90;0.60;;;16.40;77.00;;;;;;2342196;55;20966;-78
2022/12/23 07:11:43;;;;;;;2.20;0.60;;;16.40;77.10;;;;;;2341428;55;21009;-79
2022/12/23 07:14:11;;;;;;;1.33;0.40;;;16.50;77.10;;;;;;2337379;54;20953;-78
2022/12/23 07:16:37;;;;;;;2.05;0.50;;;16.50;77.00;;;;;;2326725;54;21057;-78
2022/12/23 07:19:04;;;;;;;1.55;0.55;;;16.50;77.00;;;;;;2432536;53;20956;-78
2022/12/23 07:21:44;;;;;;;1.27;0.50;;;16.50;77.10;;;;;;2436466;53;20949;-78
2022/12/23 07:24:10;;;;;;;1.52;0.60;;;16.50;76.70;;;;;;2341029;55;20925;-78
2022/12/23 07:26:38;;;;;;;1.25;0.55;;;16.40;76.90;;;;;;2344385;54;20929;-78
2022/12/23 07:29:04;;;;;;;1.80;0.60;;;16.50;77.00;;;;;;2320258;54;20942;-78
2022/12/23 07:31:31;;;;;;;1.40;0.40;;;16.40;77.00;;;;;;2542218;53;21422;-78
2022/12/23 07:33:57;;;;;;;0.37;0.32;;;16.40;76.90;;;;;;2370894;53;20933;-81
2022/12/23 07:36:23;;;;;;;1.77;0.50;;;16.30;76.80;;;;;;2342035;54;21548;-78
2022/12/23 07:38:50;;;;;;;2.00;0.47;;;16.50;77.00;;;;;;2323620;54;20944;-77
2022/12/23 07:41:16;;;;;;;1.90;0.70;;;16.50;77.10;;;;;;2394204;53;21669;-78
2022/12/23 07:43:43;;;;;;;2.42;0.80;;;16.50;77.10;;;;;;2546262;53;20977;-78
2022/12/23 07:46:09;;;;;;;2.35;0.90;;;16.50;77.10;;;;;;2375768;53;20925;-79
2022/12/23 07:48:35;;;;;;;1.25;0.47;;;16.50;77.80;;;;;;2550150;53;20960;-78
2022/12/23 07:51:02;;;;;;;2.08;0.62;;;16.50;77.20;;;;;;2331672;54;20913;-78
2022/12/23 07:53:29;;;;;;;1.95;0.60;;;16.50;77.20;;;;;;2588619;53;20973;-78
2022/12/23 07:55:55;;;;;;;0.90;0.40;;;16.50;77.20;;;;;;2342034;55;20961;-78
2022/12/23 07:58:23;;;;;;;1.05;0.40;;;16.50;77.30;;;;;;2348378;53;20980;-80
2022/12/23 08:00:50;;;;;;;1.37;0.50;;;16.50;77.30;;;;;;2353530;53;21524;-78
2022/12/23 08:03:16;;;;;;;3.75;0.77;;;16.50;77.30;;;;;;2445852;53;21084;-80
2022/12/23 08:05:44;;;;;;;2.58;0.80;;;16.50;77.30;;;;;;2342224;54;20929;-79
2022/12/23 08:08:12;;;;;;;2.70;0.73;;;16.50;77.40;;;;;;2342550;55;21395;-78
2022/12/23 08:10:38;;;;;;;1.35;0.47;;;16.50;77.30;;;;;;2341600;54;21016;-78
2022/12/23 08:13:10;;;;;;;0.90;0.40;;;16.50;77.30;;;;;;2381209;53;21407;-78
2022/12/23 08:15:36;;;;;;;1.70;0.47;;;16.50;77.30;;;;;;2342602;54;21073;-78
2022/12/23 08:18:02;;;;;;;1.35;0.43;;;16.50;77.30;;;;;;2342475;54;22002;-78
2022/12/23 08:20:29;;;;;;;1.23;0.50;;;16.50;77.30;;;;;;2347298;53;20961;-79
2022/12/23 08:23:24;;;;;;;0.85;0.40;;;16.50;77.20;;;;;;2399185;53;21537;-78
2022/12/23 08:26:09;;;;;;;1.98;0.55;;;16.60;76.90;;;;;;2341395;54;20949;-79
2022/12/23 08:28:36;;;;;;;1.08;0.37;;;16.50;76.70;;;;;;2441714;53;21085;-80
2022/12/23 08:31:27;;;;;;;0.85;0.40;;;16.60;77.30;;;;;;2322447;54;20972;-78
2022/12/23 08:33:55;;;;;;;1.40;0.50;;;16.60;77.10;;;;;;2342023;54;20914;-77
2022/12/23 08:36:24;;;;;;;1.23;0.50;;;16.60;77.20;;;;;;2342472;55;22182;-78
2022/12/23 08:38:52;;;;;;;1.62;0.40;;;16.60;77.20;;;;;;2570796;53;21381;-78
2022/12/23 08:41:28;;;;;;;1.25;0.30;;;16.60;77.30;;;;;;2345867;53;21017;-80
2022/12/23 08:43:54;;;;;;;1.45;0.50;;;16.60;77.10;;;;;;2398537;53;20997;-79
2022/12/23 08:46:21;;;;;;;0.68;0.40;;;16.60;77.30;;;;;;2386488;53;20985;-79
2022/12/23 08:48:47;;;;;;;0.95;0.35;;;16.60;77.30;;;;;;2342148;55;21316;-79
2022/12/23 08:51:17;;;;;;;1.30;0.50;;;16.60;78.00;;;;;;2342601;55;20984;-79
2022/12/23 08:53:44;;;;;;;1.27;0.50;;;16.60;77.30;;;;;;2399369;53;20929;-80
2022/12/23 08:56:32;;;;;;;1.58;0.35;;;16.60;77.40;;;;;;2442836;53;21008;-79
2022/12/23 08:58:58;;;;;;;0.80;0.50;;;16.60;76.90;;;;;;2375815;54;21986;-79
2022/12/23 09:02:00;;;;;;;1.33;0.57;;;16.60;77.30;;;;;;2449205;53;21016;-79
2022/12/23 09:04:27;;;;;;;2.87;0.73;;;16.60;76.80;;;;;;2342918;54;20898;-79
2022/12/23 09:06:57;;;;;;;0.93;0.50;;;16.60;77.20;;;;;;2342839;54;20993;-79
2022/12/23 09:09:28;;;;;;;1.23;0.52;;;16.60;77.20;;;;;;2589203;53;21024;-78
2022/12/23 09:11:54;;;;;;;1.20;0.50;;;16.60;77.20;;;;;;2582090;53;20929;-78
2022/12/23 09:14:24;;;;;;;2.28;0.77;;;16.60;77.40;;;;;;2342551;55;21825;-79
2022/12/23 09:16:53;;;;;;;1.45;0.57;;;16.70;77.50;;;;;;2405567;53;20984;-79
2022/12/23 09:19:22;;;;;;;2.58;1.27;;;16.70;77.30;;;;;;2342635;54;21775;-80
2022/12/23 09:21:54;;;;;;;2.03;0.90;;;16.70;77.40;;;;;;2342475;54;20965;-79
2022/12/23 09:24:20;;;;;;;1.40;0.60;;;16.70;77.20;;;;;;2342618;54;20993;-80
2022/12/23 09:26:50;;;;;;;2.03;0.70;;;16.70;77.30;;;;;;2361407;53;20898;-80
2022/12/23 09:29:16;;;;;;;2.20;0.70;;;16.70;77.20;;;;;;2341548;55;21395;-80
2022/12/23 09:31:43;;;;;;;1.10;0.43;;;16.70;77.30;;;;;;2342752;54;20901;-80
2022/12/23 09:34:09;;;;;;;1.52;0.50;;;16.70;77.20;;;;;;2389807;53;21002;-79
2022/12/23 09:36:35;;;;;;;1.80;0.50;;;16.70;77.20;;;;;;2331642;54;20930;-78
2022/12/23 09:39:02;;;;;;;1.73;0.47;;;16.70;77.20;;;;;;2342631;54;21446;-79
2022/12/23 09:43:24;;;;;;;1.15;0.40;;;16.70;77.30;;;;;;2495870;53;21569;-79
2022/12/23 09:46:32;;;;;;;0.90;0.50;;;16.70;76.40;;;;;;2460934;53;21017;-79
2022/12/23 09:49:12;;;;;;;1.60;0.50;;;16.80;76.70;;;;;;2343156;54;20957;-80
2022/12/23 09:51:38;;;;;;;1.35;0.50;;;16.80;77.00;;;;;;2380991;53;21006;-79
2022/12/23 09:54:13;;;;;;;0.65;0.30;;;16.70;77.20;;;;;;2342695;54;21489;-79
2022/12/23 09:57:10;;;;;;;0.65;0.40;;;16.70;77.30;;;;;;2364564;53;21343;-79
2022/12/23 10:02:41;;;;;;;0.85;0.30;;;16.80;77.10;;;;;;2376054;53;21078;-79
2022/12/23 10:08:51;;;;;;;0.60;0.20;;;16.80;76.70;;;;;;2342186;55;20972;-79
2022/12/23 10:11:27;;;;;;;1.62;0.57;;;16.80;77.10;;;;;;2342429;54;20901;-78
2022/12/23 10:13:57;;;;;;;1.12;0.55;;;16.80;77.20;;;;;;2342787;54;21012;-77
2022/12/23 10:16:26;;;;;;;2.25;0.70;;;16.80;77.40;;;;;;2342923;53;20913;-79
2022/12/23 10:19:14;;;;;;;1.35;0.60;;;16.80;77.60;;;;;;2409825;53;20937;-78
2022/12/23 10:21:53;;;;;;;1.12;0.60;;;16.80;77.30;;;;;;2437184;53;21407;-78
2022/12/23 10:24:36;;;;;;;1.20;0.50;;;16.80;77.70;;;;;;2512287;53;21009;-78
2022/12/23 10:27:48;;;;;;;1.35;0.70;;;16.80;77.60;;;;;;2342297;55;20969;-78
2022/12/23 10:30:16;;;;;;;1.48;0.60;;;16.90;78.10;;;;;;2342471;55;20910;-78
2022/12/23 10:33:23;;;;;;;0.98;0.40;;;16.90;78.00;;;;;;2497199;53;20917;-78
2022/12/23 10:36:28;;;;;;;2.20;0.75;;;16.90;77.70;;;;;;2342331;54;21407;-78
2022/12/23 10:39:11;;;;;;;2.25;0.50;;;16.90;77.30;;;;;;2404077;53;20917;-79
2022/12/23 10:42:01;;;;;;;1.90;0.57;;;16.90;77.80;;;;;;2431979;53;20949;-80
2022/12/23 10:48:18;;;;;;;1.42;0.50;;;16.90;77.50;;;;;;2342981;55;20909;-79
2022/12/23 10:52:17;;;;;;;1.35;0.50;;;17.00;77.20;;;;;;2342199;54;21339;-80
2022/12/23 10:55:10;;;;;;;2.10;0.50;;;17.00;77.80;;;;;;2342530;55;21037;-78
2022/12/23 10:57:37;;;;;;;1.20;0.50;;;17.00;77.50;;;;;;2342530;55;20921;-79
2022/12/23 11:00:16;;;;;;;1.23;0.52;;;17.00;77.90;;;;;;2341629;54;21036;-79
2022/12/23 11:04:22;;;;;;;1.37;0.52;;;17.00;77.70;;;;;;2434016;53;20968;-79
2022/12/23 11:06:49;;;;;;;0.90;0.40;;;17.00;77.50;;;;;;2414816;53;21327;-79
2022/12/23 11:09:36;;;;;;;1.35;0.50;;;17.10;78.00;;;;;;2310576;54;20958;-79
2022/12/23 11:12:07;;;;;;;2.08;0.60;;;17.10;77.70;;;;;;2419549;53;21778;-78
2022/12/23 11:14:38;;;;;;;0.98;0.40;;;17.10;78.00;;;;;;2315170;54;20965;-79
2022/12/23 11:17:17;;;;;;;1.17;0.40;;;17.10;78.10;;;;;;2367908;53;21032;-78
2022/12/23 11:19:43;;;;;;;1.25;0.40;;;17.10;78.00;;;;;;2303250;54;21074;-78
2022/12/23 11:22:21;;;;;;;1.48;0.50;;;17.10;78.10;;;;;;2314693;54;21053;-78
2022/12/23 11:24:47;;;;;;;0.93;0.37;;;17.10;77.80;;;;;;2309440;54;20977;-78
2022/12/23 11:27:15;;;;;;;1.00;0.40;;;17.10;78.10;;;;;;2315124;54;21656;-81
2022/12/23 11:29:49;;;;;;;0.82;0.37;;;17.10;78.00;;;;;;2349073;53;20937;-79
2022/12/23 11:32:19;;;;;;;1.62;0.50;;;17.20;78.00;;;;;;2459098;53;20949;-79
2022/12/23 11:34:46;;;;;;;0.68;0.30;;;17.20;78.10;;;;;;2317075;54;20909;-79
2022/12/23 11:37:39;;;;;;;1.45;0.50;;;17.20;78.10;;;;;;2315673;54;20941;-79
2022/12/23 11:40:22;;;;;;;2.47;0.43;;;17.20;77.60;;;;;;2420920;53;20984;-78
2022/12/23 11:43:05;;;;;;;1.00;0.50;;;17.20;77.60;;;;;;2370964;52;20968;-80
2022/12/23 11:45:36;;;;;;;1.70;0.65;;;17.20;77.80;;;;;;2321691;53;1351056;-81
2022/12/23 11:54:20;;;;;;;1.40;0.50;;;17.30;77.70;;;;;;2342055;54;20930;-81
2022/12/23 11:56:49;;;;;;;1.00;0.40;;;17.30;77.80;;;;;;2388343;52;21274;-79
2022/12/23 11:59:48;;;;;;;0.68;0.40;;;17.20;77.70;;;;;;2536942;52;20935;-79
2022/12/23 12:02:58;;;;;;;1.05;0.30;;;17.30;77.30;;;;;;2394404;52;20946;-78
2022/12/23 12:05:32;;;;;;;0.82;0.30;;;17.30;77.60;;;;;;2338614;54;20879;-79
2022/12/23 12:08:00;;;;;;;1.08;0.32;;;17.30;77.70;;;;;;2586177;52;20915;-82
2022/12/23 12:10:28;;;;;;;0.85;0.30;;;17.30;77.70;;;;;;2589175;52;20911;-80
2022/12/23 12:13:05;;;;;;;0.98;0.40;;;17.30;77.80;;;;;;2337468;54;20932;-79
2022/12/23 12:15:53;;;;;;;1.30;0.40;;;17.30;77.60;;;;;;2469593;52;20930;-79
2022/12/23 12:18:19;;;;;;;2.25;0.90;;;17.30;77.60;;;;;;2341818;54;21371;-79
2022/12/23 12:20:50;;;;;;;1.50;0.70;;;17.20;77.80;;;;;;2349149;53;20922;-79
2022/12/23 12:23:28;;;;;;;1.60;0.60;;;17.20;77.80;;;;;;2445765;52;20895;-78
2022/12/23 12:26:04;;;;;;;1.40;0.55;;;17.30;77.70;;;;;;2343119;54;20907;-78
2022/12/23 12:28:42;;;;;;;1.48;0.60;;;17.30;78.00;;;;;;2524810;52;20947;-79
2022/12/23 12:31:30;;;;;;;1.02;0.40;;;17.30;78.00;;;;;;2343014;54;20918;-78
2022/12/23 12:35:38;;;;;;;0.85;0.32;;;17.30;77.70;;;;;;2518102;52;21014;-79
2022/12/23 12:38:17;;;;;;;1.23;0.50;;;17.30;77.30;;;;;;2353623;53;21738;-81
2022/12/23 12:40:53;;;;;;;0.93;0.40;;;17.30;78.00;;;;;;2442373;52;20919;-79
2022/12/23 12:43:29;;;;;;;2.20;0.60;;;17.40;78.00;;;;;;2343000;54;20986;-79
2022/12/23 12:49:04;;;;;;;1.58;0.50;;;17.40;78.00;;;;;;2364034;53;20992;-79
2022/12/23 12:52:24;;;;;;;2.12;0.60;;;17.40;77.40;;;;;;2431935;52;21054;-78
2022/12/23 12:55:36;;;;;;;0.95;0.40;;;17.40;77.40;;;;;;2341725;54;20930;-78
2022/12/23 12:58:02;;;;;;;0.55;0.40;;;17.40;77.40;;;;;;2369439;52;21030;-78
2022/12/23 13:00:34;;;;;;;0.47;0.28;;;17.40;78.10;;;;;;2341870;54;21058;-81
2022/12/23 13:04:53;;;;;;;0.80;0.37;;;17.40;78.20;;;;;;2359383;53;21460;-78
2022/12/23 13:09:54;;;;;;;0.88;0.35;;;17.40;77.70;;;;;;2361437;53;20958;-80
2022/12/23 13:12:45;;;;;;;0.45;0.22;;;17.50;77.50;;;;;;2353242;53;21329;-78
2022/12/23 13:15:28;;;;;;;0.22;0.20;;;17.50;77.70;;;;;;2342390;53;21230;-79
2022/12/23 13:18:34;;;;;;;0.90;0.40;;;17.50;78.00;;;;;;2342420;54;20927;-78
2022/12/23 13:21:54;;;;;;;0.50;0.20;;;17.50;77.60;;;;;;2342177;54;20922;-79
2022/12/23 13:25:23;;;;;;;0.62;0.28;;;17.50;77.80;;;;;;2453669;52;21010;-79
2022/12/23 13:27:59;;;;;;;0.35;0.28;;;17.50;77.60;;;;;;2347764;53;20975;-78
2022/12/23 13:30:27;;;;;;;2.47;0.35;;;17.50;77.90;;;;;;2342207;54;20946;-78
2022/12/23 13:36:06;;;;;;;0.70;0.43;;;17.50;78.20;;;;;;2509833;52;21054;-78
2022/12/23 13:39:04;;;;;;;1.27;0.60;;;17.50;77.20;;;;;;2343206;54;20974;-79
2022/12/23 13:41:43;;;;;;;0.65;0.30;;;17.50;77.60;;;;;;2362973;53;20974;-79
2022/12/23 13:44:11;;;;;;;0.70;0.30;;;17.50;77.80;;;;;;2341413;54;20955;-79
2022/12/23 13:48:38;;;;;;;1.48;0.50;;;17.50;78.10;;;;;;2341580;54;21021;-78
2022/12/23 13:51:12;;;;;;;0.62;0.20;;;17.50;77.20;;;;;;2454487;52;20922;-78
2022/12/23 13:54:11;;;;;;;0.80;0.40;;;17.50;77.80;;;;;;2341695;54;20966;-78
2022/12/23 13:59:25;;;;;;;1.60;0.50;;;17.50;77.80;;;;;;2342085;54;21014;-78
2022/12/23 14:01:51;;;;;;;1.27;0.50;;;17.50;77.80;;;;;;2379618;53;20915;-78
2022/12/23 14:06:19;;;;;;;1.05;0.43;;;17.60;78.00;;;;;;2341419;54;20940;-78
2022/12/23 14:08:47;;;;;;;1.90;0.65;;;17.60;77.10;;;;;;2341882;54;20942;-78
2022/12/23 14:11:27;;;;;;;0.80;0.40;;;17.50;77.90;;;;;;2341497;54;20918;-78
2022/12/23 14:13:59;;;;;;;2.42;0.90;;;17.50;77.60;;;;;;2375611;53;20955;-78
2022/12/23 14:19:57;;;;;;;;;;;17.50;77.90;;;;;;2345938;54;20951;-79
2022/12/23 14:22:54;;;;;;;2.20;0.82;;;17.60;77.20;;;;;;2588417;52;20442;-79
2022/12/23 14:32:17;;;;;;;1.85;0.60;;;17.60;77.40;;;;;;2347679;53;21467;-79
2022/12/23 14:35:49;;;;;;;1.27;0.40;;;17.60;77.00;;;;;;2339581;54;21507;-79
2022/12/23 14:38:37;;;;;;;2.97;0.60;;;17.50;77.10;;;;;;2343154;54;20966;-79
2022/12/23 14:41:22;;;;;;;1.05;0.40;;;17.50;77.10;;;;;;2342019;54;20957;-78
2022/12/23 14:43:54;;;;;;;1.25;0.50;;;17.50;77.30;;;;;;2342394;53;20986;-79
2022/12/23 14:49:53;;;;;;;1.05;0.40;;;17.50;77.70;;;;;;2351309;53;20930;-79
2022/12/23 14:52:48;;;;;;;1.33;0.50;;;17.50;77.00;;;;;;2343416;54;21034;-78
2022/12/23 14:57:53;;;;;;;1.90;0.60;;;17.50;77.10;;;;;;2453912;52;21202;-80
2022/12/23 15:00:20;;;;;;;1.90;0.60;;;17.50;76.90;;;;;;2487079;52;21471;-79
2022/12/23 15:02:46;;;;;;;1.58;0.70;;;17.50;77.80;;;;;;2315520;54;21349;-79
2022/12/23 15:05:12;;;;;;;3.17;0.55;;;17.50;77.80;;;;;;2318461;54;20901;-79
2022/12/23 15:07:42;;;;;;;1.37;0.55;;;17.40;77.70;;;;;;2315115;54;21323;-79
2022/12/23 15:10:16;;;;;;;3.33;0.50;;;17.40;77.70;;;;;;2333695;53;20940;-78